Time;durP1;ratioP1;P1;durP2;ratioP2;P2;SDS_P1;SDS_P2;PMS_P1;PMS_P2;Temp;Humidity;BMP_temperature;BMP_pressure;BME280_temperature;BME280_humidity;BME280_pressure;Samples;Min_cycle;Max_cycle;Signal;HPM_P1;HPM_P2
2023/01/01 00:04:01;;;;;;;16.98;9.30;;;;;;;3.00;88.27;101494.94;10468576;28;20819;-84
2023/01/01 00:14:54;;;;;;;15.70;10.55;;;;;;;4.00;89.01;101652.66;10491559;28;20048;-84
2023/01/01 00:20:08;;;;;;;;;;;;;;;;;;;;;
2023/01/01 00:25:24;;;;;;;15.77;9.95;;;;;;;3.42;88.97;101551.06;10449223;28;20037;-83
2023/01/01 00:30:25;;;;;;;14.95;10.07;;;;;;;3.26;88.54;101516.16;10449844;28;20068;-83
2023/01/01 00:35:29;;;;;;;15.85;10.95;;;;;;;3.13;89.00;101488.00;10448623;28;20449;-84
2023/01/01 00:40:30;;;;;;;15.88;10.75;;;;;;;3.88;89.48;101619.22;10449084;28;20049;-85
2023/01/01 00:45:31;;;;;;;14.80;10.45;;;;;;;3.34;89.25;101521.78;10447662;28;20463;-83
2023/01/01 00:50:35;;;;;;;16.42;11.23;;;;;;;4.89;89.46;101784.00;10448596;28;20087;-84
2023/01/01 00:55:47;;;;;;;;;;;;;;;;;;;;;
2023/01/01 01:00:59;;;;;;;25.48;12.88;;;;;;;3.23;90.49;101490.06;10445759;28;20390;-85
2023/01/01 01:06:13;;;;;;;;;;;;;;;;;;;;;
2023/01/01 01:11:22;;;;;;;;;;;;;;;5.13;91.94;101786.03;10441549;28;20087;-85
2023/01/01 01:16:31;;;;;;;18.63;12.13;;;;;;;4.76;91.54;101733.91;10419818;28;19932;-84
2023/01/01 01:21:35;;;;;;;21.92;13.63;;;;;;;3.03;91.01;101426.50;10422655;28;20045;-85
2023/01/01 01:32:19;;;;;;;23.48;15.30;;;;;;;3.58;91.20;101509.78;10461275;28;20407;-85
2023/01/01 01:37:47;;;;;;;;;;;;;;;;;;;;;
2023/01/01 01:42:56;;;;;;;21.52;14.30;;;;;;;4.47;91.64;101656.78;10430089;28;20037;-85
2023/01/01 01:48:10;;;;;;;;;;;;;;;;;;;;;
2023/01/01 01:53:48;;;;;;;;;;;;;;;;;;;;;
2023/01/01 02:17:07;;;;;;;;;;;;;;;;;;;;;
2023/01/01 02:22:46;;;;;;;25.98;16.40;;;;;;;5.22;95.45;101769.66;10417678;28;20045;-86
2023/01/01 03:00:46;;;;;;;;;;;;;;;;;;;;;
2023/01/01 03:13:37;;;;;;;;;;;;;;;;;;;;;
2023/01/01 03:44:21;;;;;;;;;;;;;;;;;;;;;
2023/01/01 03:50:43;;;;;;;;;;;;;;;;;;;;;
2023/01/01 04:02:52;;;;;;;27.52;17.38;;;;;;;3.18;97.54;101585.72;10411345;28;20135;-87
2023/01/01 04:08:31;;;;;;;26.65;17.50;;;;;;;4.92;98.76;101868.06;10272935;28;20531;-87
2023/01/01 04:20:09;;;;;;;30.67;18.05;;;;;;;3.23;98.05;101639.75;10056066;29;20514;-84
2023/01/01 04:53:10;;;;;;;;;;;;;;;;;;;;;
2023/01/01 05:09:57;;;;;;;33.75;18.42;;;;;;;4.63;100.00;101885.63;10499359;28;20068;-88
2023/01/01 05:14:57;;;;;;;30.60;18.75;;;;;;;3.19;100.00;101658.31;10544587;28;20052;-88
2023/01/01 05:19:59;;;;;;;31.08;19.52;;;;;;;4.27;100.00;101799.22;10526413;28;20118;-87
2023/01/01 05:24:59;;;;;;;33.85;18.55;;;;;;;4.33;100.00;101802.31;10525536;28;20055;-86
2023/01/01 05:30:00;;;;;;;30.40;17.88;;;;;;;5.13;100.00;101918.59;10525149;28;20556;-87
2023/01/01 05:35:01;;;;;;;27.10;16.17;;;;;;;4.89;100.00;101859.53;10543164;28;20075;-87
2023/01/01 05:40:02;;;;;;;26.90;16.13;;;;;;;5.30;99.83;101930.72;10524233;28;20043;-87
2023/01/01 05:52:01;;;;;;;24.80;15.55;;;;;;;5.50;100.00;101932.09;10331921;28;20148;-87
2023/01/01 05:57:24;;;;;;;30.67;16.02;;;;;;;2.87;98.01;101528.06;10133587;29;20044;-87
2023/01/01 06:16:13;;;;;;;;;;;;;;;;;;;;;
2023/01/01 06:21:53;;;;;;;24.25;13.95;;;;;;;5.85;97.85;101945.69;10147749;29;20052;-86
2023/01/01 06:40:08;;;;;;;25.63;13.27;;;;;;;5.40;95.06;101728.09;10535647;28;20067;-86
2023/01/01 06:46:07;;;;;;;19.98;12.88;;;;;;;5.18;93.85;101639.06;10518003;28;20051;-86
2023/01/01 07:04:16;;;;;;;;;;;;;;;;;;;;;
2023/01/01 07:42:30;;;;;;;20.48;12.93;;;;;;;6.95;86.92;101644.31;10121487;28;20058;-83
2023/01/01 07:47:31;;;;;;;18.63;12.75;;;;;;;8.83;87.45;101895.69;10470136;28;20511;-86
2023/01/01 07:52:32;;;;;;;19.23;12.93;;;;;;;8.68;87.03;101856.19;10422698;28;20152;-83
2023/01/01 07:57:33;;;;;;;16.52;11.48;;;;;;;7.99;87.02;101717.63;10438455;28;20441;-83
2023/01/01 08:02:34;;;;;;;17.33;12.07;;;;;;;8.32;87.00;101772.44;10417231;28;20056;-87
2023/01/01 08:07:35;;;;;;;18.15;12.75;;;;;;;9.28;86.56;101901.03;10437906;28;20045;-80
2023/01/01 08:12:36;;;;;;;15.35;11.38;;;;;;;9.40;85.69;101873.53;10432109;28;20148;-86
2023/01/01 08:17:37;;;;;;;16.20;11.23;;;;;;;9.02;85.35;101781.97;10415688;28;20136;-87
2023/01/01 08:22:38;;;;;;;16.20;11.05;;;;;;;9.31;84.66;101806.16;10403283;28;20053;-85
2023/01/01 08:27:39;;;;;;;15.70;10.60;;;;;;;9.01;83.67;101707.88;10456523;28;20041;-84
2023/01/01 08:32:40;;;;;;;16.40;10.60;;;;;;;9.56;83.17;101757.22;10457982;28;20099;-78
2023/01/01 08:37:40;;;;;;;15.07;10.15;;;;;;;10.34;82.37;101853.41;10402869;28;20037;-83
2023/01/01 08:42:41;;;;;;;14.02;10.98;;;;;;;10.37;82.45;101847.84;10402482;28;20464;-86
2023/01/01 08:47:42;;;;;;;14.45;11.07;;;;;;;10.38;81.81;101812.34;10420934;28;20048;-86
2023/01/01 08:52:43;;;;;;;15.45;11.23;;;;;;;9.77;81.44;101692.72;10405606;28;20060;-79
2023/01/01 08:57:44;;;;;;;16.75;11.80;;;;;;;10.39;81.03;101776.84;10431721;28;20143;-82
2023/01/01 09:02:45;;;;;;;15.63;10.98;;;;;;;10.93;80.54;101825.34;10405681;28;20069;-79
2023/01/01 09:07:45;;;;;;;13.25;10.10;;;;;;;10.71;80.03;101749.31;10430053;28;20057;-84
2023/01/01 09:12:46;;;;;;;13.73;10.32;;;;;;;10.85;79.74;101764.84;10443285;28;20411;-79
2023/01/01 09:17:47;;;;;;;13.73;10.77;;;;;;;10.09;79.80;101620.13;10434186;28;20077;-84
2023/01/01 09:22:48;;;;;;;15.25;11.02;;;;;;;10.49;79.02;101628.94;10423501;28;20060;-84
2023/01/01 09:27:55;;;;;;;13.43;10.55;;;;;;;11.19;78.71;101709.53;10451890;28;20114;-85
2023/01/01 09:32:56;;;;;;;15.00;10.55;;;;;;;11.71;78.51;101765.13;10441126;28;20052;-84
2023/01/01 09:37:57;;;;;;;15.63;11.02;;;;;;;11.87;77.86;101736.13;10457697;28;20406;-86
2023/01/01 09:43:20;;;;;;;14.48;10.48;;;;;;;12.07;76.94;101744.94;10457147;28;20393;-80
2023/01/01 09:48:22;;;;;;;16.70;10.65;;;;;;;11.89;76.61;101738.66;10458515;28;20098;-77
2023/01/01 09:53:58;;;;;;;13.77;10.35;;;;;;;11.88;76.70;101756.47;10458814;28;20071;-81
2023/01/01 09:58:59;;;;;;;13.55;11.18;;;;;;;11.66;76.73;101704.31;10424143;28;20509;-88
2023/01/01 10:04:23;;;;;;;14.35;10.20;;;;;;;12.21;75.80;101745.47;10440946;28;20045;-83
2023/01/01 10:09:33;;;;;;;14.82;10.95;;;;;;;12.26;75.64;101708.56;10434408;28;20135;-83
2023/01/01 10:14:49;;;;;;;13.32;10.23;;;;;;;12.54;74.65;101738.78;10399185;28;20513;-83
2023/01/01 10:20:01;;;;;;;13.13;9.77;;;;;;;12.64;73.55;101736.91;10398101;28;20054;-83
2023/01/01 10:25:14;;;;;;;14.65;9.82;;;;;;;12.66;73.49;101734.09;10406891;28;20701;-83
2023/01/01 10:30:18;;;;;;;12.55;9.70;;;;;;;12.62;73.80;101733.53;10452416;28;20047;-82
2023/01/01 10:35:33;;;;;;;14.35;9.43;;;;;;;12.62;73.53;101730.03;10456463;28;20056;-81
2023/01/01 10:40:34;;;;;;;17.95;14.48;;;;;;;11.77;74.19;101585.38;10438845;28;20049;-84
2023/01/01 10:45:43;;;;;;;12.52;9.38;;;;;;;12.49;72.95;101707.22;10415706;28;20076;-82
2023/01/01 10:50:53;;;;;;;15.80;11.20;;;;;;;12.71;72.90;101730.00;10413826;28;20045;-81
2023/01/01 10:56:10;;;;;;;13.45;9.30;;;;;;;12.30;71.85;101651.34;10414060;28;20061;-83
2023/01/01 11:01:22;;;;;;;13.18;9.25;;;;;;;12.31;72.65;101635.22;10412537;28;20104;-84
2023/01/01 11:06:36;;;;;;;12.43;8.90;;;;;;;12.90;71.70;101722.88;10447100;28;20091;-80
2023/01/01 11:11:44;;;;;;;;;;;;;;;13.16;72.54;101715.84;10452231;28;20048;-85
2023/01/01 11:16:45;;;;;;;11.10;7.97;;;;;;;12.72;71.97;101678.34;10455489;28;19966;-79
2023/01/01 11:21:46;;;;;;;10.98;7.28;;;;;;;12.84;71.43;101707.47;10455072;28;20558;-84
2023/01/01 11:26:48;;;;;;;10.40;7.45;;;;;;;12.41;70.46;101631.66;10436762;28;20048;-84
2023/01/01 11:31:50;;;;;;;9.55;6.85;;;;;;;12.84;70.95;101710.97;10436478;28;20088;-82
2023/01/01 11:36:51;;;;;;;14.40;8.07;;;;;;;12.42;71.18;101644.84;10416606;28;20056;-80
2023/01/01 11:41:55;;;;;;;12.45;7.97;;;;;;;12.28;70.59;101616.00;10450143;28;20045;-79
2023/01/01 11:46:57;;;;;;;10.07;7.10;;;;;;;12.98;70.50;101717.63;10453411;28;20052;-84
2023/01/01 11:51:58;;;;;;;10.48;7.78;;;;;;;12.69;70.56;101683.97;10453948;28;20052;-81
2023/01/01 11:57:17;;;;;;;12.15;7.30;;;;;;;12.61;69.37;101659.88;10422718;28;20057;-79
2023/01/01 12:02:29;;;;;;;9.50;7.25;;;;;;;12.53;69.26;101665.97;10413232;28;20049;-90
2023/01/01 12:07:35;;;;;;;10.07;6.60;;;;;;;12.75;69.81;101714.53;10413374;28;20071;-78
2023/01/01 12:12:47;;;;;;;10.68;6.72;;;;;;;12.34;69.80;101664.22;10394874;28;20183;-77
2023/01/01 12:18:05;;;;;;;10.23;6.93;;;;;;;12.22;69.76;101672.56;10413518;28;20395;-79
2023/01/01 12:23:09;;;;;;;15.52;7.85;;;;;;;12.28;70.36;101710.09;10410479;28;20041;-82
2023/01/01 12:28:48;;;;;;;8.82;5.95;;;;;;;12.24;70.41;101716.72;10394291;28;20067;-80
2023/01/01 12:34:07;;;;;;;8.00;5.75;;;;;;;12.10;70.90;101727.84;10284950;28;20047;-81
2023/01/01 12:39:29;;;;;;;10.13;5.93;;;;;;;11.52;71.53;101650.72;10384760;28;20081;-75
2023/01/01 12:44:49;;;;;;;7.85;6.05;;;;;;;11.85;71.77;101730.13;10423600;28;20495;-79
2023/01/01 12:50:14;;;;;;;8.70;5.68;;;;;;;11.70;72.20;101736.84;10423394;28;20085;-81
2023/01/01 12:55:34;;;;;;;8.73;6.18;;;;;;;11.56;72.55;101739.94;10409897;28;20057;-77
2023/01/01 13:00:39;;;;;;;11.48;7.10;;;;;;;11.19;73.14;101708.69;10416965;28;20049;-80
2023/01/01 13:05:44;;;;;;;8.43;6.30;;;;;;;11.14;73.77;101740.16;10453091;28;20052;-77
2023/01/01 13:10:48;;;;;;;10.80;6.93;;;;;;;11.07;74.54;101750.53;10442146;28;20099;-77
2023/01/01 13:15:54;;;;;;;93.10;11.27;;;;;;;10.88;75.38;101740.66;10442638;28;20072;-79
2023/01/01 13:21:20;;;;;;;18.98;7.22;;;;;;;10.68;75.67;101754.88;10458061;28;20397;-90
2023/01/01 13:26:20;;;;;;;19.40;7.90;;;;;;;9.21;75.72;101515.34;10420836;28;20179;-90
2023/01/01 13:31:39;;;;;;;13.88;8.52;;;;;;;10.50;77.59;101736.91;10415552;28;20121;-76
2023/01/01 13:36:40;;;;;;;15.75;8.27;;;;;;;10.41;77.42;101734.19;10441585;28;20040;-79
2023/01/01 13:41:43;;;;;;;13.27;8.52;;;;;;;10.32;77.87;101717.25;10441705;28;20070;-78
2023/01/01 13:46:46;;;;;;;23.40;11.23;;;;;;;10.23;77.82;101724.16;10444434;28;20049;-87
2023/01/01 13:52:04;;;;;;;25.63;10.27;;;;;;;9.92;78.97;101672.84;10424287;28;20444;-81
2023/01/01 13:57:44;;;;;;;21.83;9.52;;;;;;;9.85;79.42;101681.47;10418458;28;20404;-84
2023/01/01 14:02:57;;;;;;;19.25;10.23;;;;;;;9.67;80.06;101682.06;10416633;28;20453;-85
2023/01/01 14:07:58;;;;;;;16.97;9.73;;;;;;;9.23;79.36;101611.50;10417806;28;20046;-82
2023/01/01 14:13:05;;;;;;;27.13;13.48;;;;;;;9.25;80.53;101636.09;10416829;28;20102;-87
2023/01/01 17:14:09;;;;;;;12.20;7.95;;;;;;;7.83;80.70;101740.91;10972085;23;20502;-86
2023/01/01 17:19:11;;;;;;;13.88;6.85;;;;;;;7.86;80.84;101730.09;10359891;28;20111;-90
2023/01/01 17:43:58;;;;;;;14.52;9.00;;;;;;;5.92;80.19;101400.19;9982984;29;20054;-88
2023/01/01 17:49:51;;;;;;;14.10;7.95;;;;;;;7.65;80.32;101674.38;9976999;29;20061;-87
2023/01/01 20:12:44;;;;;;;10.45;6.18;;;;;;;7.37;81.01;101593.66;10331896;28;20054;-89
2023/01/01 20:30:55;;;;;;;8.88;6.20;;;;;;;7.35;80.56;101609.63;10384627;28;20050;-87
2023/01/01 20:59:56;;;;;;;7.97;5.90;;;;;;;7.36;80.00;101561.13;2842426;26;20066;-88
2023/01/01 21:04:57;;;;;;;9.45;6.15;;;;;;;6.43;79.40;101399.13;10441516;28;20057;-85
2023/01/01 21:09:59;;;;;;;9.73;5.70;;;;;;;7.20;79.04;101535.00;10461073;28;20465;-88
2023/01/01 21:15:00;;;;;;;9.75;5.90;;;;;;;7.40;79.24;101567.00;10460603;28;20122;-87
2023/01/01 21:20:01;;;;;;;10.10;6.05;;;;;;;7.40;79.17;101559.06;10459506;28;20044;-87
2023/01/01 21:25:17;;;;;;;12.90;6.10;;;;;;;6.94;78.21;101478.00;10461066;28;20148;-88
2023/01/01 21:30:19;;;;;;;11.23;6.15;;;;;;;7.39;78.75;101550.31;10458298;28;20088;-87
2023/01/01 21:35:21;;;;;;;8.20;5.38;;;;;;;6.68;78.23;101429.81;10458929;28;20052;-88
2023/01/01 21:40:35;;;;;;;10.05;5.80;;;;;;;7.48;77.52;101549.59;10441686;28;20420;-88
2023/01/01 21:45:39;;;;;;;10.02;5.28;;;;;;;7.49;78.15;101553.06;10441617;28;20122;-88
2023/01/01 21:50:44;;;;;;;9.80;5.70;;;;;;;6.00;77.71;101294.19;10459525;28;20417;-89
